createdAt,value
2023-02-11T00:00:43.363Z,24.94
2023-02-11T00:01:43.358Z,24.93
2023-02-11T00:02:45.487Z,24.94
2023-02-11T00:03:43.410Z,24.93
2023-02-11T00:04:43.351Z,24.93
2023-02-11T00:55:23.933Z,24.93
2023-02-11T00:56:24.904Z,24.94
2023-02-11T00:57:24.891Z,24.94
2023-02-11T00:58:24.892Z,24.94
2023-02-11T00:59:24.873Z,24.93
2023-02-11T01:00:24.861Z,24.94
2023-02-11T01:01:24.949Z,24.94
2023-02-11T01:02:24.859Z,24.91
2023-02-11T01:03:24.843Z,24.93
2023-02-11T01:04:24.836Z,24.93
2023-02-11T03:09:23.748Z,24.86
2023-02-11T03:10:23.741Z,24.86
2023-02-11T03:11:23.738Z,24.86
2023-02-11T03:12:23.733Z,24.87
2023-02-11T03:13:23.718Z,24.83
2023-02-11T03:14:23.713Z,24.83
2023-02-11T03:15:23.704Z,24.84
2023-02-11T03:16:23.779Z,24.84
2023-02-11T03:17:23.680Z,24.84
2023-02-11T03:18:23.674Z,24.86
2023-02-11T03:19:23.693Z,24.84
2023-02-11T03:20:23.663Z,24.83
2023-02-11T03:21:23.653Z,24.84
2023-02-11T03:22:23.637Z,24.83
2023-02-11T03:23:23.635Z,24.84
2023-02-11T03:24:23.622Z,24.86
2023-02-11T03:25:23.620Z,24.83
2023-02-11T03:26:23.616Z,24.86
2023-02-11T03:27:23.595Z,24.83
2023-02-11T03:28:23.678Z,24.83
2023-02-11T03:29:23.578Z,24.81
2023-02-11T03:30:23.574Z,24.81
2023-02-11T03:31:23.697Z,24.83
2023-02-11T03:32:23.551Z,24.87
2023-02-11T03:33:23.545Z,24.84
2023-02-11T03:34:23.545Z,24.86
2023-02-11T03:35:23.558Z,24.84
2023-02-11T03:36:23.527Z,24.84
2023-02-11T03:37:23.506Z,24.84
2023-02-11T03:38:23.521Z,24.83
2023-02-11T03:39:23.491Z,24.84
2023-02-11T03:40:23.488Z,24.84
2023-02-11T03:41:23.481Z,24.86
2023-02-11T03:42:23.469Z,24.86
2023-02-11T03:43:23.467Z,24.83
2023-02-11T03:44:23.448Z,24.83
2023-02-11T03:45:23.450Z,24.83
2023-02-11T03:46:23.439Z,24.87
2023-02-11T03:47:23.429Z,24.84
2023-02-11T03:48:23.414Z,24.84
2023-02-11T03:49:23.408Z,24.86
2023-02-11T03:50:23.405Z,24.84
2023-02-11T03:51:23.448Z,24.86
2023-02-11T03:52:23.389Z,24.83
2023-02-11T03:53:23.374Z,24.84
2023-02-11T03:54:23.364Z,24.84
2023-02-11T03:55:23.356Z,24.83
2023-02-11T03:56:23.358Z,24.83
2023-02-11T03:57:23.342Z,24.84
2023-02-11T03:58:23.336Z,24.83
2023-02-11T03:59:23.318Z,24.84
2023-02-11T04:00:23.311Z,24.84
2023-02-11T04:01:23.374Z,24.86
2023-02-11T04:02:23.295Z,24.84
2023-02-11T04:03:23.360Z,24.87
2023-02-11T04:04:23.286Z,24.87
2023-02-11T04:05:23.273Z,24.87
2023-02-11T04:06:23.268Z,24.84
2023-02-11T04:07:23.277Z,24.84
2023-02-11T04:08:23.238Z,24.84
2023-02-11T04:09:23.239Z,24.84
2023-02-11T04:10:23.230Z,24.84
2023-02-11T04:11:23.220Z,24.84
2023-02-11T04:12:23.221Z,24.86
2023-02-11T04:13:23.200Z,24.84
2023-02-11T04:14:23.196Z,24.84
2023-02-11T04:15:23.184Z,24.83
2023-02-11T04:16:23.213Z,24.86
2023-02-11T04:17:23.176Z,24.86
2023-02-11T04:18:23.160Z,24.84
2023-02-11T04:19:23.148Z,24.84
2023-02-11T04:20:23.161Z,24.84
2023-02-11T04:21:23.142Z,24.84
2023-02-11T04:22:23.138Z,24.84
2023-02-11T04:23:23.153Z,24.84
2023-02-11T04:24:23.114Z,24.84
2023-02-11T04:25:23.108Z,24.86
2023-02-11T04:26:23.093Z,24.84
2023-02-11T04:27:23.088Z,24.83
2023-02-11T04:28:23.140Z,24.84
2023-02-11T04:29:23.066Z,24.83
2023-02-11T04:30:23.054Z,24.83
2023-02-11T04:31:23.212Z,24.84
2023-02-11T04:32:23.035Z,24.84
2023-02-11T04:33:23.031Z,24.83
2023-02-11T04:34:23.020Z,24.83
2023-02-11T04:35:23.025Z,24.83
2023-02-11T04:36:23.005Z,24.84
2023-02-11T04:37:22.995Z,24.83
2023-02-11T04:38:22.983Z,24.83
2023-02-11T04:39:23.010Z,24.83
2023-02-11T04:40:22.968Z,24.81
2023-02-11T04:41:22.977Z,24.84
2023-02-11T04:42:22.960Z,24.83
2023-02-11T04:43:22.941Z,24.81
2023-02-11T04:44:22.932Z,24.84
2023-02-11T04:45:22.956Z,24.84
2023-02-11T04:46:23.041Z,24.81
2023-02-11T04:47:22.927Z,24.87
2023-02-11T04:48:22.904Z,24.83
2023-02-11T04:49:22.896Z,24.87
2023-02-11T04:50:22.883Z,24.86
2023-02-11T04:51:22.870Z,24.84
2023-02-11T04:52:22.878Z,24.83
2023-02-11T04:53:22.870Z,24.81
2023-02-11T04:54:22.852Z,24.84
2023-02-11T04:55:22.882Z,24.84
2023-02-11T04:56:22.856Z,24.83
2023-02-11T04:57:22.837Z,24.83
2023-02-11T04:58:22.815Z,24.83
2023-02-11T04:59:22.808Z,24.84
2023-02-11T05:00:22.806Z,24.83
2023-02-11T05:01:22.868Z,24.81
2023-02-11T05:02:22.800Z,24.81
2023-02-11T05:03:22.789Z,24.81
2023-02-11T05:04:22.941Z,24.81
2023-02-11T05:05:22.753Z,24.83
2023-02-11T05:06:22.741Z,24.81
2023-02-11T05:07:22.740Z,24.81
2023-02-11T05:08:22.729Z,24.81
2023-02-11T05:09:22.721Z,24.83
2023-02-11T05:10:22.709Z,24.83
2023-02-11T05:11:22.736Z,24.81
2023-02-11T05:12:22.692Z,24.81
2023-02-11T05:13:22.684Z,24.80
2023-02-11T05:14:22.677Z,24.81
2023-02-11T05:15:22.681Z,24.80
2023-02-11T05:16:22.740Z,24.81
2023-02-11T05:17:22.657Z,24.83
2023-02-11T05:18:22.646Z,24.83
2023-02-11T05:19:22.635Z,24.81
2023-02-11T05:20:22.629Z,24.81
2023-02-11T05:21:22.613Z,24.81
2023-02-11T05:22:22.607Z,24.81
2023-02-11T05:23:22.597Z,24.83
2023-02-11T05:24:22.589Z,24.81
2023-02-11T05:25:22.584Z,24.84
2023-02-11T05:26:22.587Z,24.83
2023-02-11T05:27:22.589Z,24.81
2023-02-11T05:28:22.604Z,24.83
2023-02-11T05:29:22.556Z,24.81
2023-02-11T05:30:22.540Z,24.80
2023-02-11T05:31:22.535Z,24.83
2023-02-11T05:32:22.523Z,24.81
2023-02-11T05:33:22.518Z,24.80
2023-02-11T05:34:22.504Z,24.81
2023-02-11T05:35:22.497Z,24.81
2023-02-11T05:36:22.492Z,24.83
2023-02-11T05:37:22.495Z,24.83
2023-02-11T05:38:22.474Z,24.80
2023-02-11T05:39:22.462Z,24.83
2023-02-11T05:40:22.455Z,24.81
2023-02-11T05:41:22.446Z,24.81
2023-02-11T05:42:22.442Z,24.81
2023-02-11T05:43:22.457Z,24.80
2023-02-11T05:44:22.415Z,24.81
2023-02-11T05:45:22.413Z,24.83
2023-02-11T05:46:22.418Z,24.80
2023-02-11T05:47:22.395Z,24.83
2023-02-11T05:48:22.389Z,24.81
2023-02-11T05:49:22.372Z,24.81
2023-02-11T05:50:22.371Z,24.80
2023-02-11T05:51:22.355Z,24.78
2023-02-11T05:52:22.349Z,24.80
2023-02-11T05:53:22.353Z,24.83
2023-02-11T05:54:22.358Z,24.80
2023-02-11T05:55:22.362Z,24.83
2023-02-11T05:56:22.319Z,24.81
2023-02-11T05:57:22.310Z,24.81
2023-02-11T05:58:22.298Z,24.80
2023-02-11T05:59:22.320Z,24.80
2023-02-11T06:00:22.282Z,24.80
2023-02-11T06:01:22.280Z,24.81
2023-02-11T06:02:22.321Z,24.81
2023-02-11T06:03:22.274Z,24.80
2023-02-11T06:04:22.249Z,24.81
2023-02-11T06:05:22.255Z,24.78
2023-02-11T06:06:22.241Z,24.81
2023-02-11T06:07:22.251Z,24.80
2023-02-11T06:08:22.212Z,24.78
2023-02-11T11:54:19.218Z,24.84
2023-02-11T13:20:18.481Z,24.91
2023-02-11T22:48:13.570Z,24.70
2023-02-11T23:33:13.168Z,24.71
2023-02-11T23:51:13.040Z,24.71
